createdAt,value
2024-03-05T00:00:54.289Z,97145.25
2024-03-05T00:01:56.716Z,97151.63
2024-03-05T00:02:58.341Z,97141.88
2024-03-05T00:04:01.124Z,97142.63
2024-03-05T00:05:04.948Z,97142.28
2024-03-05T00:06:07.645Z,97142.25
2024-03-05T00:07:09.216Z,97141.50
2024-03-05T00:08:11.151Z,97139.25
2024-03-05T00:09:12.758Z,97141.91
2024-03-05T00:10:14.732Z,97141.16
2024-03-05T00:11:16.605Z,97138.91
2024-03-05T00:12:18.788Z,97139.28
2024-03-05T00:13:20.581Z,97139.25
2024-03-05T00:14:22.524Z,97133.59
2024-03-05T00:15:24.097Z,97141.50
2024-03-05T00:16:25.884Z,97137.38
2024-03-05T00:17:27.991Z,97134.38
2024-03-05T00:18:30.561Z,97135.50
2024-03-05T00:19:32.360Z,97137.00
2024-03-05T00:20:33.995Z,97143.38
2024-03-05T00:21:35.891Z,97141.91
2024-03-05T00:22:37.388Z,97142.25
2024-03-05T00:23:39.758Z,97138.84
2024-03-05T00:24:41.268Z,97142.25
2024-03-05T00:25:43.393Z,97141.91
2024-03-05T00:26:44.895Z,97146.03
2024-03-05T00:27:46.415Z,97144.94
2024-03-05T00:28:48.044Z,97146.81
2024-03-05T00:29:49.632Z,97150.94
2024-03-05T00:30:51.527Z,97142.66
2024-03-05T00:31:53.081Z,97150.94
2024-03-05T00:32:54.708Z,97149.44
2024-03-05T00:33:57.060Z,97143.44
2024-03-05T00:34:58.623Z,97146.44
2024-03-05T00:36:00.236Z,97149.78
2024-03-05T00:37:01.749Z,97147.91
2024-03-05T00:38:09.153Z,97148.25
2024-03-05T00:39:14.029Z,97157.66
2024-03-05T00:40:15.706Z,97150.88
2024-03-05T00:41:19.430Z,97152.00
2024-03-05T00:42:21.008Z,97149.38
2024-03-05T00:43:23.023Z,97161.03
2024-03-05T00:44:24.898Z,97147.13
2024-03-05T00:45:26.960Z,97155.00
2024-03-05T00:46:28.557Z,97148.63
2024-03-05T00:47:31.280Z,97147.50
2024-03-05T00:48:33.213Z,97144.88
2024-03-05T00:49:34.891Z,97150.88
2024-03-05T00:50:36.488Z,97147.13
2024-03-05T00:51:37.997Z,97141.13
2024-03-05T00:52:39.650Z,97153.13
2024-03-05T00:53:41.244Z,97144.47
2024-03-05T00:54:42.836Z,97148.25
2024-03-05T00:55:45.534Z,97140.34
2024-03-05T00:56:47.374Z,97146.75
2024-03-05T00:57:48.953Z,97143.75
2024-03-05T00:58:51.642Z,97136.22
2024-03-05T00:59:54.855Z,97138.09
2024-03-05T01:00:56.519Z,97138.53
2024-03-05T01:01:58.726Z,97147.22
2024-03-05T01:03:00.426Z,97149.47
2024-03-05T01:04:01.994Z,97149.09
2024-03-05T01:05:06.628Z,97149.41
2024-03-05T01:06:08.557Z,97155.41
2024-03-05T01:07:11.402Z,97152.06
2024-03-05T01:08:13.734Z,97150.16
2024-03-05T01:09:20.259Z,97149.03
2024-03-05T01:10:21.923Z,97149.75
2024-03-05T01:11:23.495Z,97149.78
2024-03-05T01:12:25.100Z,97152.06
2024-03-05T01:13:28.081Z,97146.81
2024-03-05T01:14:29.557Z,97150.97
2024-03-05T01:15:31.200Z,97142.28
2024-03-05T01:16:32.831Z,97147.16
2024-03-05T01:17:34.372Z,97151.28
2024-03-05T01:18:35.967Z,97150.53
2024-03-05T01:19:37.749Z,97151.63
2024-03-05T01:20:42.612Z,97153.50
2024-03-05T01:21:44.201Z,97148.59
2024-03-05T01:22:49.361Z,97152.72
2024-03-05T01:23:50.973Z,97151.56
2024-03-05T01:24:52.472Z,97149.34
2024-03-05T01:25:54.117Z,97151.59
2024-03-05T01:26:55.719Z,97153.09
2024-03-05T01:27:59.146Z,97154.22
2024-03-05T01:29:00.784Z,97150.06
2024-03-05T01:30:02.497Z,97152.69
2024-03-05T01:31:04.323Z,97156.09
2024-03-05T01:32:06.137Z,97144.44
2024-03-05T01:33:11.870Z,97146.69
2024-03-05T01:34:13.432Z,97146.31
2024-03-05T01:35:15.150Z,97148.56
2024-03-05T01:36:17.073Z,97150.47
2024-03-05T01:37:18.687Z,97152.34
2024-03-05T01:38:21.620Z,97147.06
2024-03-05T01:39:23.748Z,97145.94
2024-03-05T01:40:25.885Z,97140.66
2024-03-05T01:41:27.912Z,97144.41
2024-03-05T01:42:29.392Z,97150.06
2024-03-05T01:43:31.659Z,97147.81
2024-03-05T01:44:34.556Z,97148.19
2024-03-05T01:45:36.117Z,97151.16
2024-03-05T01:46:37.937Z,97151.16
2024-03-05T01:47:39.572Z,97155.31
2024-03-05T01:48:45.091Z,97153.06
2024-03-05T01:49:46.732Z,97154.56
2024-03-05T01:50:48.556Z,97145.91
2024-03-05T01:51:50.605Z,97151.53
2024-03-05T01:52:52.228Z,97150.41
2024-03-05T01:53:53.903Z,97146.63
2024-03-05T01:55:01.494Z,97142.13
2024-03-05T01:56:03.407Z,97153.72
2024-03-05T01:57:05.128Z,97150.34
2024-03-05T01:58:09.813Z,97152.22
2024-03-05T01:59:12.123Z,97151.09
2024-03-05T02:00:16.774Z,97151.09
2024-03-05T02:01:19.067Z,97151.47
2024-03-05T02:02:20.825Z,97153.34
2024-03-05T02:03:22.471Z,97154.09
2024-03-05T02:04:25.057Z,97152.97
2024-03-05T02:05:26.774Z,97151.09
2024-03-05T02:06:32.233Z,97152.22
2024-03-05T02:07:36.691Z,97152.25
2024-03-05T02:08:39.040Z,97147.38
2024-03-05T02:09:40.635Z,97152.22
2024-03-05T02:10:42.289Z,97148.47
2024-03-05T02:12:48.304Z,97155.25
2024-03-05T02:13:49.974Z,97152.63
2024-03-05T02:14:52.702Z,97154.13
2024-03-05T02:15:55.578Z,97150.00
2024-03-05T02:16:59.316Z,97159.06
2024-03-05T02:18:01.050Z,97155.69
2024-03-05T02:19:04.427Z,97155.69
2024-03-05T02:20:10.932Z,97159.06
2024-03-05T02:21:22.313Z,97157.53
2024-03-05T02:22:23.937Z,97160.53
2024-03-05T02:23:25.735Z,97155.25
2024-03-05T02:24:27.952Z,97154.53
2024-03-05T02:25:32.383Z,97156.78
2024-03-05T02:26:34.618Z,97161.66
2024-03-05T02:27:40.095Z,97161.25
2024-03-05T02:28:41.778Z,97158.28
2024-03-05T02:29:43.990Z,97156.41
2024-03-05T02:30:45.837Z,97154.91
2024-03-05T02:31:47.714Z,97151.53
2024-03-05T02:32:49.710Z,97160.50
2024-03-05T02:33:51.607Z,97150.78
2024-03-05T02:34:56.035Z,97155.66
2024-03-05T02:35:58.709Z,97160.50
2024-03-05T02:37:00.806Z,97154.50
2024-03-05T02:38:02.479Z,97159.78
2024-03-05T02:39:04.047Z,97161.69
2024-03-05T02:40:10.242Z,97157.56
2024-03-05T02:41:12.054Z,97157.94
2024-03-05T02:42:13.691Z,97159.41
2024-03-05T02:43:15.256Z,97162.78
2024-03-05T02:44:19.758Z,97162.78
2024-03-05T02:45:21.344Z,97163.91
2024-03-05T02:46:22.968Z,97163.16
2024-03-05T02:47:25.358Z,97169.56
2024-03-05T02:48:27.079Z,97163.53
2024-03-05T02:49:28.728Z,97161.63
2024-03-05T02:50:30.343Z,97171.03
2024-03-05T02:51:31.954Z,97164.25
2024-03-05T02:52:33.548Z,97169.88
2024-03-05T02:53:36.161Z,97167.25
2024-03-05T02:54:37.782Z,97164.66
2024-03-05T02:55:40.154Z,97165.78
2024-03-05T02:56:41.768Z,97160.53
2024-03-05T02:57:43.592Z,97162.38
2024-03-05T02:58:45.210Z,97166.13
2024-03-05T02:59:47.113Z,97170.25
2024-03-05T03:00:48.732Z,97163.88
2024-03-05T03:01:51.521Z,97166.88
2024-03-05T03:02:53.205Z,97170.63
2024-03-05T03:03:54.776Z,97168.75
2024-03-05T03:04:56.498Z,97168.03
2024-03-05T03:05:58.087Z,97168.06
2024-03-05T03:06:59.676Z,97173.31
2024-03-05T03:08:01.209Z,97173.28
2024-03-05T03:09:04.237Z,97171.38
2024-03-05T03:10:06.623Z,97169.91
2024-03-05T03:11:08.885Z,97172.97
2024-03-05T03:12:10.528Z,97165.50
2024-03-05T03:13:12.662Z,97170.00
2024-03-05T03:14:14.432Z,97174.50
2024-03-05T03:15:19.048Z,97170.00
2024-03-05T03:16:20.638Z,97175.22
2024-03-05T03:17:22.286Z,97177.81
2024-03-05T03:18:23.874Z,97181.53
2024-03-05T03:19:25.490Z,97174.78
2024-03-05T03:20:27.059Z,97183.81
2024-03-05T03:21:28.523Z,97176.31
2024-03-05T03:22:30.195Z,97178.19
2024-03-05T03:23:31.807Z,97180.09
2024-03-05T03:24:33.910Z,97179.34
2024-03-05T03:25:36.952Z,97181.19
2024-03-05T03:26:39.545Z,97185.34
2024-03-05T03:27:41.997Z,97180.44
2024-03-05T03:28:43.623Z,97182.72
2024-03-05T03:29:45.283Z,97179.66
2024-03-05T03:30:46.919Z,97182.66
2024-03-05T03:31:48.566Z,97179.66
2024-03-05T03:32:51.226Z,97182.69
2024-03-05T03:33:53.265Z,97180.06
2024-03-05T03:34:55.318Z,97179.66
2024-03-05T03:35:57.111Z,97187.91
2024-03-05T03:36:58.737Z,97186.38
2024-03-05T03:38:01.822Z,97178.16
2024-03-05T03:39:03.870Z,97175.88
2024-03-05T03:40:09.330Z,97185.28
2024-03-05T03:41:10.815Z,97186.72
2024-03-05T03:42:12.299Z,97181.47
2024-03-05T03:43:15.926Z,97179.22
2024-03-05T03:44:18.620Z,97181.09
2024-03-05T03:45:20.591Z,97178.06
2024-03-05T03:46:22.434Z,97179.56
2024-03-05T03:47:24.885Z,97183.78
2024-03-05T03:48:26.356Z,97180.44
2024-03-05T03:49:27.955Z,97190.25
2024-03-05T03:50:29.820Z,97182.72
2024-03-05T03:51:31.427Z,97189.84
2024-03-05T03:52:34.075Z,97178.91
2024-03-05T03:53:38.206Z,97189.78
2024-03-05T03:54:39.822Z,97190.53
2024-03-05T03:55:41.471Z,97189.03
2024-03-05T03:56:43.101Z,97189.00
2024-03-05T03:57:45.098Z,97190.13
2024-03-05T03:58:46.702Z,97190.50
2024-03-05T03:59:48.453Z,97190.88
2024-03-05T04:00:50.576Z,97189.75
2024-03-05T04:01:52.401Z,97192.03
2024-03-05T04:02:54.197Z,97192.41
2024-03-05T04:03:56.202Z,97184.53
2024-03-05T04:04:57.830Z,97196.16
2024-03-05T04:06:00.394Z,97192.06
2024-03-05T04:07:02.010Z,97192.03
2024-03-05T04:08:05.111Z,97181.94
2024-03-05T04:09:10.422Z,97184.56
2024-03-05T04:10:12.455Z,97193.56
2024-03-05T04:11:14.163Z,97185.31
2024-03-05T04:12:15.836Z,97198.44
2024-03-05T04:13:18.947Z,97189.44
2024-03-05T04:14:20.837Z,97200.34
2024-03-05T04:15:23.032Z,97199.59
2024-03-05T04:16:24.872Z,97200.69
2024-03-05T04:17:26.934Z,97202.19
2024-03-05T04:18:28.547Z,97195.78
2024-03-05T04:19:32.096Z,97204.09
2024-03-05T04:20:33.711Z,97201.06
2024-03-05T04:22:06.666Z,97202.16
2024-03-05T04:23:10.397Z,97205.59
2024-03-05T04:24:15.314Z,97207.06
2024-03-05T04:25:17.014Z,97209.72
2024-03-05T04:26:24.619Z,97208.59
2024-03-05T04:27:28.238Z,97204.84
2024-03-05T04:28:37.395Z,97215.81
2024-03-05T04:29:43.001Z,97206.38
2024-03-05T04:30:48.270Z,97209.75
2024-03-05T04:32:10.145Z,97215.75
2024-03-05T04:33:12.411Z,97209.34
2024-03-05T04:34:14.460Z,97205.22
2024-03-05T04:35:17.542Z,97212.66
2024-03-05T04:36:19.036Z,97214.53
2024-03-05T04:37:20.497Z,97208.88
2024-03-05T04:38:22.518Z,97211.84
2024-03-05T04:39:24.128Z,97215.25
2024-03-05T04:40:25.857Z,97216.00
2024-03-05T04:41:27.514Z,97206.97
2024-03-05T04:42:28.983Z,97214.81
2024-03-05T04:43:30.530Z,97203.94
2024-03-05T04:44:35.102Z,97217.44
2024-03-05T04:45:39.027Z,97210.59
2024-03-05T04:46:41.089Z,97214.72
2024-03-05T04:47:42.895Z,97215.88
2024-03-05T04:48:44.499Z,97214.34
2024-03-05T04:49:45.986Z,97212.16
2024-03-05T04:50:47.475Z,97220.50
2024-03-05T04:51:50.748Z,97213.72
2024-03-05T04:52:53.969Z,97209.22
2024-03-05T04:53:56.745Z,97217.50
2024-03-05T04:54:58.522Z,97216.75
2024-03-05T04:56:00.077Z,97219.38
2024-03-05T04:57:01.615Z,97221.22
2024-03-05T04:58:03.158Z,97218.22
2024-03-05T04:59:05.749Z,97220.91
2024-03-05T05:00:21.419Z,97217.16
2024-03-05T05:01:23.586Z,97211.50
2024-03-05T05:02:25.230Z,97224.72
2024-03-05T05:03:27.683Z,97218.69
2024-03-05T05:04:29.193Z,97219.03
2024-03-05T05:05:32.910Z,97216.75
2024-03-05T05:06:34.511Z,97213.78
2024-03-05T05:07:36.057Z,97217.13
2024-03-05T05:08:37.921Z,97216.38
2024-03-05T05:09:41.014Z,97218.28
2024-03-05T05:10:42.884Z,97217.88
2024-03-05T05:11:44.551Z,97216.75
2024-03-05T05:12:46.426Z,97214.84
2024-03-05T05:13:48.163Z,97215.22
2024-03-05T05:14:50.569Z,97218.22
2024-03-05T05:15:52.185Z,97216.75
2024-03-05T05:16:53.711Z,97219.75
2024-03-05T05:17:55.396Z,97212.22
2024-03-05T05:18:56.909Z,97221.63
2024-03-05T05:20:01.441Z,97221.25
2024-03-05T05:21:03.313Z,97215.69
2024-03-05T05:22:05.874Z,97225.47
2024-03-05T05:23:07.406Z,97219.44
2024-03-05T05:24:08.884Z,97219.81
2024-03-05T05:25:10.451Z,97213.44
2024-03-05T05:26:13.993Z,97218.69
2024-03-05T05:27:15.601Z,97220.56
2024-03-05T05:28:17.441Z,97220.22
2024-03-05T05:29:27.270Z,97220.94
2024-03-05T05:30:38.386Z,97214.84
2024-03-05T05:31:39.965Z,97222.06
2024-03-05T05:32:41.888Z,97223.59
2024-03-05T05:33:43.520Z,97224.75
2024-03-05T05:34:45.097Z,97222.84
2024-03-05T05:35:46.659Z,97226.59
2024-03-05T05:36:48.308Z,97222.84
2024-03-05T05:37:49.975Z,97224.34
2024-03-05T05:38:51.533Z,97220.19
2024-03-05T05:39:53.219Z,97226.59
2024-03-05T05:40:54.762Z,97225.47
2024-03-05T05:41:56.412Z,97228.78
2024-03-05T05:42:59.820Z,97221.25
2024-03-05T05:44:01.627Z,97222.34
2024-03-05T05:45:09.822Z,97222.00
2024-03-05T05:46:20.324Z,97226.88
2024-03-05T05:47:22.109Z,97217.03
2024-03-05T05:48:29.494Z,97222.97
2024-03-05T05:49:33.567Z,97227.47
2024-03-05T05:50:35.263Z,97228.97
2024-03-05T05:51:37.220Z,97227.13
2024-03-05T05:52:39.033Z,97234.56
2024-03-05T05:53:40.633Z,97230.09
2024-03-05T05:54:44.937Z,97227.81
2024-03-05T05:55:46.711Z,97230.81
2024-03-05T05:56:49.574Z,97230.06
2024-03-05T05:57:52.973Z,97236.03
2024-03-05T05:58:55.267Z,97242.81
2024-03-05T05:59:57.157Z,97237.19
2024-03-05T06:00:58.730Z,97239.06
2024-03-05T06:02:00.750Z,97241.00
2024-03-05T06:03:04.500Z,97241.44
2024-03-05T06:04:08.857Z,97245.09
2024-03-05T06:05:10.536Z,97240.91
2024-03-05T06:06:18.080Z,97251.78
2024-03-05T06:07:19.889Z,97242.06
2024-03-05T06:08:21.867Z,97246.94
2024-03-05T06:09:29.438Z,97246.66
2024-03-05T06:10:31.794Z,97247.72
2024-03-05T06:11:33.627Z,97242.81
2024-03-05T06:12:35.955Z,97243.63
2024-03-05T06:13:37.632Z,97255.28
2024-03-05T06:14:39.214Z,97254.94
2024-03-05T06:15:40.987Z,97251.88
2024-03-05T06:16:42.635Z,97255.94
2024-03-05T06:17:44.756Z,97253.31
2024-03-05T06:18:46.384Z,97253.75
2024-03-05T06:19:47.903Z,97254.88
2024-03-05T06:20:49.547Z,97253.75
2024-03-05T06:21:51.340Z,97249.59
2024-03-05T06:22:53.162Z,97259.75
2024-03-05T06:23:54.758Z,97254.06
2024-03-05T06:24:56.365Z,97253.31
2024-03-05T06:25:58.026Z,97253.34
2024-03-05T06:26:59.809Z,97255.28
2024-03-05T06:28:01.452Z,97254.53
2024-03-05T06:29:07.846Z,97264.25
2024-03-05T06:30:14.443Z,97255.53
2024-03-05T06:31:17.219Z,97258.16
2024-03-05T06:32:19.046Z,97260.75
2024-03-05T06:33:20.663Z,97253.63
2024-03-05T06:34:22.248Z,97262.25
2024-03-05T06:35:26.425Z,97261.09
2024-03-05T06:36:28.562Z,97263.72
2024-03-05T06:37:30.916Z,97260.72
2024-03-05T06:38:32.932Z,97264.13
2024-03-05T06:39:36.634Z,97263.75
2024-03-05T06:40:38.221Z,97272.09
2024-03-05T06:41:39.768Z,97268.00
2024-03-05T06:43:04.284Z,97266.88
2024-03-05T06:44:11.710Z,97268.38
2024-03-05T06:45:16.293Z,97272.13
2024-03-05T06:46:18.827Z,97268.00
2024-03-05T06:47:28.376Z,97272.97
2024-03-05T06:48:32.148Z,97268.88
2024-03-05T06:49:40.026Z,97275.31
2024-03-05T06:50:44.605Z,97271.53
2024-03-05T06:51:58.106Z,97276.41
2024-03-05T06:53:18.408Z,97276.41
2024-03-05T06:54:39.627Z,97279.03
2024-03-05T06:56:01.378Z,97279.38
2024-03-05T06:57:03.445Z,97270.28
2024-03-05T06:58:05.616Z,97270.66
2024-03-05T06:59:07.600Z,97261.28
2024-03-05T07:00:16.839Z,97279.03
2024-03-05T07:01:21.666Z,97271.53
2024-03-05T07:02:24.822Z,97270.06
2024-03-05T07:03:26.735Z,97271.22
2024-03-05T07:04:28.553Z,97280.59
2024-03-05T07:05:30.116Z,97274.97
2024-03-05T07:06:31.831Z,97279.84
2024-03-05T07:07:34.544Z,97280.25
2024-03-05T07:08:44.110Z,97275.75
2024-03-05T07:09:46.068Z,97281.78
2024-03-05T07:10:48.451Z,97280.25
2024-03-05T07:11:50.180Z,97275.75
2024-03-05T07:12:52.445Z,97275.03
2024-03-05T07:13:55.352Z,97287.06
2024-03-05T07:14:56.968Z,97285.19
2024-03-05T07:15:58.397Z,97284.03
2024-03-05T07:16:59.910Z,97282.22
2024-03-05T07:18:02.895Z,97284.16
2024-03-05T07:19:04.733Z,97289.78
2024-03-05T07:20:16.785Z,97281.53
2024-03-05T07:21:21.379Z,97283.00
2024-03-05T07:22:24.378Z,97289.88
2024-03-05T07:23:30.019Z,97292.13
2024-03-05T07:24:31.628Z,97292.50
2024-03-05T07:25:33.200Z,97287.97
2024-03-05T07:26:36.017Z,97278.22
2024-03-05T07:27:37.704Z,97292.56
2024-03-05T07:28:39.627Z,97296.72
2024-03-05T07:29:41.149Z,97289.19
2024-03-05T07:30:43.769Z,97288.47
2024-03-05T07:31:45.431Z,97293.03
2024-03-05T07:32:49.058Z,97291.94
2024-03-05T07:33:53.341Z,97289.66
2024-03-05T07:35:06.566Z,97287.78
2024-03-05T07:36:08.203Z,97290.81
2024-03-05T07:37:09.861Z,97285.16
2024-03-05T07:38:24.109Z,97291.91
2024-03-05T07:39:25.987Z,97297.53
2024-03-05T07:40:27.674Z,97287.78
2024-03-05T07:41:34.119Z,97295.31
2024-03-05T07:42:42.418Z,97295.28
2024-03-05T07:43:44.112Z,97296.09
2024-03-05T07:44:45.733Z,97294.25
2024-03-05T07:45:49.483Z,97301.84
2024-03-05T07:46:52.512Z,97300.72
2024-03-05T07:47:54.285Z,97302.66
2024-03-05T07:48:55.990Z,97304.94
2024-03-05T07:49:57.701Z,97306.81
2024-03-05T07:50:59.320Z,97306.44
2024-03-05T07:52:01.038Z,97304.16
2024-03-05T07:53:03.675Z,97304.91
2024-03-05T07:54:14.803Z,97301.16
2024-03-05T07:55:28.980Z,97307.19
2024-03-05T07:57:56.892Z,97310.22
2024-03-05T08:01:58.984Z,97302.22
2024-03-05T08:03:00.785Z,97302.63
2024-03-05T08:04:02.571Z,97302.25
2024-03-05T08:05:05.524Z,97302.56
2024-03-05T08:06:07.172Z,97298.47
2024-03-05T08:07:08.706Z,97308.63
2024-03-05T08:08:10.900Z,97306.31
2024-03-05T08:09:13.383Z,97306.59
2024-03-05T08:10:17.892Z,97304.75
2024-03-05T08:11:19.677Z,97304.75
2024-03-05T08:12:22.789Z,97307.41
2024-03-05T08:13:24.446Z,97306.69
2024-03-05T08:14:25.966Z,97309.72
2024-03-05T08:15:27.713Z,97316.47
2024-03-05T08:16:34.842Z,97308.84
2024-03-05T08:17:37.846Z,97305.47
2024-03-05T08:18:40.715Z,97306.97
2024-03-05T08:19:42.831Z,97310.34
2024-03-05T08:20:44.343Z,97313.00
2024-03-05T08:21:45.881Z,97308.13
2024-03-05T08:22:48.150Z,97310.03
2024-03-05T08:23:52.342Z,97302.53
2024-03-05T08:24:53.896Z,97304.47
2024-03-05T08:25:55.600Z,97309.75
2024-03-05T08:26:58.498Z,97309.03
2024-03-05T08:28:00.234Z,97306.06
2024-03-05T08:29:02.001Z,97308.31
2024-03-05T08:30:04.574Z,97303.03
2024-03-05T08:31:09.374Z,97306.81
2024-03-05T08:32:10.915Z,97308.34
2024-03-05T08:33:14.956Z,97302.31
2024-03-05T08:34:16.663Z,97307.56
2024-03-05T08:35:23.339Z,97301.53
2024-03-05T08:36:26.620Z,97306.47
2024-03-05T08:37:28.700Z,97303.09
2024-03-05T08:38:30.633Z,97303.09
2024-03-05T08:39:37.140Z,97298.59
2024-03-05T08:40:38.757Z,97303.13
2024-03-05T08:41:47.742Z,97307.25
2024-03-05T08:42:57.916Z,97304.94
2024-03-05T08:43:59.645Z,97307.94
2024-03-05T08:45:01.371Z,97309.44
2024-03-05T08:46:05.545Z,97308.31
2024-03-05T08:47:08.204Z,97306.84
2024-03-05T08:48:12.020Z,97304.97
2024-03-05T08:49:13.758Z,97304.94
2024-03-05T08:50:15.858Z,97300.06
2024-03-05T08:51:19.076Z,97309.88
2024-03-05T08:52:21.480Z,97305.34
2024-03-05T08:53:23.351Z,97303.81
2024-03-05T08:54:24.960Z,97306.00
2024-03-05T08:55:27.436Z,97302.66
2024-03-05T08:56:29.472Z,97302.31
2024-03-05T08:57:31.107Z,97304.97
2024-03-05T08:58:33.001Z,97310.59
2024-03-05T08:59:35.467Z,97306.50
2024-03-05T09:00:42.712Z,97306.91
2024-03-05T09:01:45.527Z,97310.69
2024-03-05T09:02:47.612Z,97312.94
2024-03-05T09:03:49.204Z,97312.94
2024-03-05T09:04:52.548Z,97314.78
2024-03-05T09:05:54.263Z,97315.16
2024-03-05T09:06:55.927Z,97314.44
2024-03-05T09:07:57.589Z,97312.56
2024-03-05T09:08:59.486Z,97312.16
2024-03-05T09:10:01.039Z,97320.47
2024-03-05T09:11:06.670Z,97317.44
2024-03-05T09:12:08.509Z,97316.31
2024-03-05T09:13:10.185Z,97322.69
2024-03-05T09:14:12.213Z,97324.94
2024-03-05T09:15:17.589Z,97324.94
2024-03-05T09:16:19.423Z,97326.47
2024-03-05T09:17:22.467Z,97325.31
2024-03-05T09:18:24.049Z,97331.00
2024-03-05T09:19:25.746Z,97336.63
2024-03-05T09:20:27.351Z,97318.91
2024-03-05T09:21:29.798Z,97328.72
2024-03-05T09:22:31.821Z,97335.13
2024-03-05T09:23:33.887Z,97334.03
2024-03-05T09:24:36.551Z,97335.50
2024-03-05T09:25:44.183Z,97326.81
2024-03-05T09:43:05.267Z,97326.81
2024-03-05T09:44:09.206Z,97330.97
2024-03-05T09:45:16.190Z,97324.16
2024-03-05T09:46:19.157Z,97336.22
2024-03-05T09:47:21.631Z,97340.41
2024-03-05T09:48:23.516Z,97340.03
2024-03-05T09:49:26.350Z,97328.34
2024-03-05T09:50:28.431Z,97333.25
2024-03-05T09:51:31.313Z,97339.31
2024-03-05T09:52:35.238Z,97336.66
2024-03-05T09:53:38.164Z,97330.22
2024-03-05T09:54:40.205Z,97335.09
2024-03-05T09:55:42.180Z,97332.84
2024-03-05T09:56:48.269Z,97336.19
2024-03-05T09:57:50.540Z,97337.66
2024-03-05T09:58:53.362Z,97333.88
2024-03-05T09:59:55.875Z,97336.56
2024-03-05T10:01:00.587Z,97338.81
2024-03-05T10:02:02.814Z,97334.69
2024-03-05T10:03:05.034Z,97336.56
2024-03-05T10:04:12.452Z,97339.56
2024-03-05T10:05:17.351Z,97338.44
2024-03-05T10:06:19.449Z,97342.22
2024-03-05T10:07:27.451Z,97347.88
2024-03-05T10:08:29.826Z,97341.47
2024-03-05T10:09:31.646Z,97341.41
2024-03-05T10:10:36.009Z,97339.50
2024-03-05T10:11:38.463Z,97339.97
2024-03-05T10:14:13.343Z,97335.09
2024-03-05T10:15:30.214Z,97341.91
2024-03-05T10:16:40.624Z,97343.41
2024-03-05T10:19:21.130Z,97341.19
2024-03-05T10:23:01.408Z,97352.47
2024-03-05T10:24:08.291Z,97347.22
2024-03-05T10:26:36.240Z,97346.47
2024-03-05T10:27:37.839Z,97354.00
2024-03-05T10:28:39.473Z,97343.06
2024-03-05T10:29:42.179Z,97345.72
2024-03-05T10:30:44.254Z,97343.47
2024-03-05T10:31:48.215Z,97346.09
2024-03-05T10:32:56.415Z,97345.66
2024-03-05T10:33:58.092Z,97343.75
2024-03-05T10:35:00.818Z,97348.28
2024-03-05T10:36:02.532Z,97349.47
2024-03-05T10:37:05.407Z,97343.44
2024-03-05T10:38:11.286Z,97353.63
2024-03-05T10:39:14.180Z,97351.38
2024-03-05T10:40:16.440Z,97351.38
2024-03-05T10:41:53.714Z,97345.69
2024-03-05T10:42:59.961Z,97344.94
2024-03-05T10:44:02.132Z,97341.88
2024-03-05T10:45:04.118Z,97349.06
2024-03-05T10:46:05.785Z,97345.31
2024-03-05T10:47:09.640Z,97349.84
2024-03-05T10:48:13.503Z,97342.31
2024-03-05T10:49:15.786Z,97345.69
2024-03-05T10:50:19.398Z,97349.44
2024-03-05T10:51:22.686Z,97346.44
2024-03-05T10:52:28.330Z,97352.84
2024-03-05T10:53:33.018Z,97340.44
2024-03-05T10:54:38.620Z,97350.22
2024-03-05T10:55:44.393Z,97344.22
2024-03-05T10:56:46.735Z,97346.09
2024-03-05T10:58:11.418Z,97341.94
2024-03-05T10:59:31.512Z,97349.09
2024-03-05T11:00:36.779Z,97349.06
2024-03-05T11:01:40.686Z,97345.28
2024-03-05T11:02:43.111Z,97342.97
2024-03-05T11:03:46.172Z,97345.56
2024-03-05T11:04:49.872Z,97338.41
2024-03-05T11:05:53.240Z,97344.75
2024-03-05T11:06:59.704Z,97342.44
2024-03-05T11:08:02.301Z,97340.56
2024-03-05T11:09:08.818Z,97342.75
2024-03-05T11:10:13.523Z,97344.25
2024-03-05T11:11:22.443Z,97340.03
2024-03-05T11:12:24.951Z,97345.78
2024-03-05T11:13:28.406Z,97337.88
2024-03-05T11:14:31.525Z,97343.16
2024-03-05T11:15:34.021Z,97343.50
2024-03-05T11:16:35.723Z,97337.78
2024-03-05T11:17:37.659Z,97334.41
2024-03-05T11:18:40.377Z,97337.72
2024-03-05T11:19:46.474Z,97342.66
2024-03-05T11:20:48.668Z,97338.88
2024-03-05T11:21:50.197Z,97336.38
2024-03-05T11:22:52.691Z,97337.88
2024-03-05T11:23:56.319Z,97335.22
2024-03-05T11:25:02.232Z,97332.91
2024-03-05T11:26:07.949Z,97343.00
2024-03-05T11:27:13.542Z,97340.03
2024-03-05T11:28:19.523Z,97338.53
2024-03-05T11:29:27.463Z,97337.63
2024-03-05T11:30:30.119Z,97338.38
2024-03-05T11:31:31.968Z,97336.19
2024-03-05T11:32:40.490Z,97335.88
2024-03-05T11:33:42.245Z,97338.53
2024-03-05T11:34:47.952Z,97333.28
2024-03-05T11:35:49.543Z,97330.59
2024-03-05T11:37:13.218Z,97335.03
2024-03-05T11:38:20.005Z,97340.03
2024-03-05T11:39:21.538Z,97340.75
2024-03-05T11:40:35.425Z,97329.84
2024-03-05T11:41:39.351Z,97337.69
2024-03-05T11:42:47.909Z,97336.56
2024-03-05T11:43:53.750Z,97335.00
2024-03-05T11:44:55.374Z,97339.94
2024-03-05T11:45:57.762Z,97339.94
2024-03-05T11:46:59.669Z,97332.72
2024-03-05T11:48:03.530Z,97337.59
2024-03-05T11:49:06.084Z,97344.03
2024-03-05T11:50:08.044Z,97336.56
2024-03-05T11:51:09.814Z,97340.03
2024-03-05T11:52:11.483Z,97334.00
2024-03-05T11:53:16.585Z,97339.69
2024-03-05T11:54:21.826Z,97336.75
2024-03-05T11:55:26.184Z,97335.97
2024-03-05T11:56:27.839Z,97337.13
2024-03-05T11:57:29.361Z,97334.88
2024-03-05T11:58:31.340Z,97339.00
2024-03-05T11:59:50.295Z,97337.13
2024-03-05T12:01:01.534Z,97337.16
2024-03-05T12:02:09.225Z,97336.44
2024-03-05T12:03:23.669Z,97335.00
2024-03-05T12:04:29.409Z,97340.69
2024-03-05T12:05:40.099Z,97330.50
2024-03-05T12:06:51.480Z,97334.63
2024-03-05T12:08:10.905Z,97333.50
2024-03-05T12:09:20.308Z,97336.53
2024-03-05T12:10:22.043Z,97333.91
2024-03-05T12:11:23.927Z,97335.44
2024-03-05T12:12:26.018Z,97331.25
2024-03-05T12:13:28.473Z,97321.06
2024-03-05T12:14:32.516Z,97323.69
2024-03-05T12:15:36.661Z,97326.66
2024-03-05T12:16:38.785Z,97327.41
2024-03-05T12:17:42.008Z,97321.78
2024-03-05T12:18:43.736Z,97327.41
2024-03-05T12:19:47.815Z,97328.47
2024-03-05T12:20:49.419Z,97325.81
2024-03-05T12:21:50.975Z,97317.06
2024-03-05T12:22:56.296Z,97321.91
2024-03-05T12:24:00.156Z,97323.66
2024-03-05T12:25:01.733Z,97326.91
2024-03-05T12:26:04.817Z,97317.41
2024-03-05T12:27:08.179Z,97322.97
2024-03-05T12:28:10.408Z,97322.78
2024-03-05T12:29:12.044Z,97328.34
2024-03-05T12:30:14.191Z,97318.91
2024-03-05T12:31:16.848Z,97322.00
2024-03-05T12:32:19.777Z,97328.34
2024-03-05T12:33:23.560Z,97328.44
2024-03-05T12:34:27.013Z,97323.22
2024-03-05T12:35:29.270Z,97330.72
2024-03-05T12:36:30.859Z,97323.44
2024-03-05T12:37:32.514Z,97322.75
2024-03-05T12:38:34.160Z,97324.19
2024-03-05T12:39:36.954Z,97320.38
2024-03-05T12:40:38.618Z,97323.75
2024-03-05T12:41:41.942Z,97316.69
2024-03-05T12:42:47.574Z,97319.63
2024-03-05T12:43:53.428Z,97318.47
2024-03-05T12:45:11.131Z,97317.97
2024-03-05T12:46:19.189Z,97322.69
2024-03-05T12:47:21.078Z,97321.81
2024-03-05T12:48:29.197Z,97317.56
2024-03-05T12:49:33.225Z,97311.72
2024-03-05T12:50:36.055Z,97313.00
2024-03-05T12:51:37.580Z,97317.72
2024-03-05T12:52:39.235Z,97317.69
2024-03-05T12:53:42.144Z,97323.03